createdAt,value
2024-01-10T00:01:22.351Z,-7.88
2024-01-10T00:03:50.942Z,-7.87
2024-01-10T00:06:19.492Z,-7.89
2024-01-10T00:08:47.779Z,-8.14
2024-01-10T00:11:16.229Z,-8.20
2024-01-10T00:13:44.543Z,-8.18
2024-01-10T00:16:16.628Z,-8.15
2024-01-10T00:18:44.899Z,-7.96
2024-01-10T00:21:13.243Z,-8.03
2024-01-10T00:23:41.414Z,-8.07
2024-01-10T00:26:09.546Z,-7.95
2024-01-10T00:28:37.792Z,-7.86
2024-01-10T00:31:06.073Z,-7.81
2024-01-10T00:33:34.610Z,-7.73
2024-01-10T00:36:03.010Z,-7.65
2024-01-10T00:38:31.269Z,-7.66
2024-01-10T00:40:59.510Z,-7.69
2024-01-10T00:43:27.929Z,-7.63
2024-01-10T00:45:56.206Z,-7.59
2024-01-10T00:48:24.478Z,-7.73
2024-01-10T00:50:52.692Z,-7.73
2024-01-10T00:53:20.964Z,-7.81
2024-01-10T00:55:49.567Z,-7.90
2024-01-10T00:58:18.181Z,-7.88
2024-01-10T01:00:46.415Z,-7.82
2024-01-10T01:03:14.737Z,-7.78
2024-01-10T01:05:43.105Z,-7.73
2024-01-10T01:08:11.329Z,-7.66
2024-01-10T01:10:39.707Z,-7.66
2024-01-10T01:13:08.548Z,-7.69
2024-01-10T01:15:36.664Z,-7.52
2024-01-10T01:18:05.346Z,-7.23
2024-01-10T01:20:34.296Z,-6.99
2024-01-10T01:23:02.717Z,-6.90
2024-01-10T01:25:30.900Z,-7.07
2024-01-10T01:27:59.127Z,-7.25
2024-01-10T01:30:27.364Z,-7.34
2024-01-10T01:32:55.623Z,-7.40
2024-01-10T01:35:25.064Z,-7.44
2024-01-10T01:37:53.423Z,-7.51
2024-01-10T01:40:22.034Z,-7.60
2024-01-10T01:42:50.227Z,-7.66
2024-01-10T01:45:18.482Z,-7.74
2024-01-10T01:47:46.907Z,-7.89
2024-01-10T01:50:15.407Z,-7.96
2024-01-10T01:52:45.165Z,-7.96
2024-01-10T01:55:13.468Z,-7.89
2024-01-10T01:57:41.635Z,-7.85
2024-01-10T02:00:10.842Z,-7.78
2024-01-10T02:02:39.201Z,-7.72
2024-01-10T02:05:07.550Z,-7.82
2024-01-10T02:07:36.654Z,-7.83
2024-01-10T02:10:05.801Z,-7.71
2024-01-10T02:12:33.950Z,-7.72
2024-01-10T02:15:02.183Z,-7.90
2024-01-10T02:17:30.502Z,-7.90
2024-01-10T02:20:17.095Z,-7.86
2024-01-10T02:22:45.919Z,-7.89
2024-01-10T02:25:14.994Z,-7.83
2024-01-10T02:27:43.361Z,-7.74
2024-01-10T02:30:12.628Z,-7.73
2024-01-10T02:32:41.343Z,-7.68
2024-01-10T02:35:09.880Z,-7.58
2024-01-10T02:37:38.290Z,-7.45
2024-01-10T02:40:07.965Z,-7.29
2024-01-10T02:42:36.605Z,-7.39
2024-01-10T02:45:06.248Z,-7.49
2024-01-10T02:47:34.502Z,-7.49
2024-01-10T02:50:02.945Z,-7.56
2024-01-10T02:52:31.944Z,-7.52
2024-01-10T02:55:00.353Z,-7.54
2024-01-10T02:57:28.870Z,-7.62
2024-01-10T02:59:57.039Z,-7.58
2024-01-10T03:02:25.534Z,-7.58
2024-01-10T03:04:53.938Z,-7.60
2024-01-10T03:07:22.285Z,-7.65
2024-01-10T03:09:50.754Z,-7.54
2024-01-10T03:12:18.924Z,-7.50
2024-01-10T03:14:47.099Z,-7.55
2024-01-10T03:17:15.626Z,-7.62
2024-01-10T03:19:45.293Z,-7.67
2024-01-10T03:22:13.677Z,-7.78
2024-01-10T03:24:41.937Z,-7.86
2024-01-10T03:27:10.106Z,-7.91
2024-01-10T03:29:38.288Z,-7.90
2024-01-10T03:32:07.929Z,-7.84
2024-01-10T03:34:36.693Z,-7.75
2024-01-10T03:37:05.356Z,-7.65
2024-01-10T03:39:33.674Z,-7.55
2024-01-10T03:42:01.808Z,-7.51
2024-01-10T03:44:30.056Z,-7.57
2024-01-10T03:46:58.414Z,-7.62
2024-01-10T03:49:26.749Z,-7.63
2024-01-10T03:51:55.010Z,-7.66
2024-01-10T03:54:23.286Z,-7.90
2024-01-10T03:56:51.557Z,-7.93
2024-01-10T03:59:19.702Z,-7.93
2024-01-10T04:01:47.912Z,-7.87
2024-01-10T04:04:16.380Z,-7.75
2024-01-10T04:06:44.555Z,-7.66
2024-01-10T04:09:12.725Z,-7.60
2024-01-10T04:11:40.942Z,-7.56
2024-01-10T04:14:13.006Z,-7.54
2024-01-10T04:16:43.933Z,-7.54
2024-01-10T04:19:12.452Z,-7.65
2024-01-10T04:21:40.857Z,-7.70
2024-01-10T04:24:09.030Z,-7.72
2024-01-10T04:26:37.314Z,-7.69
2024-01-10T04:29:05.621Z,-7.69
2024-01-10T04:31:33.683Z,-7.64
2024-01-10T04:34:02.002Z,-7.55
2024-01-10T04:36:30.315Z,-7.47
2024-01-10T04:38:58.484Z,-7.54
2024-01-10T04:41:26.926Z,-7.62
2024-01-10T04:43:55.285Z,-7.60
2024-01-10T04:46:23.635Z,-7.60
2024-01-10T04:48:51.889Z,-7.59
2024-01-10T04:51:20.167Z,-7.56
2024-01-10T04:53:48.334Z,-7.47
2024-01-10T04:56:16.661Z,-7.60
2024-01-10T04:58:45.111Z,-7.75
2024-01-10T05:01:13.250Z,-7.87
2024-01-10T05:03:41.991Z,-7.81
2024-01-10T05:06:10.568Z,-7.79
2024-01-10T05:08:38.910Z,-7.70
2024-01-10T05:11:07.260Z,-7.62
2024-01-10T05:13:35.638Z,-7.59
2024-01-10T05:16:03.942Z,-7.53
2024-01-10T05:18:32.149Z,-7.50
2024-01-10T05:21:00.846Z,-7.40
2024-01-10T05:23:29.071Z,-7.34
2024-01-10T05:25:57.410Z,-7.37
2024-01-10T05:28:25.936Z,-7.42
2024-01-10T05:30:55.376Z,-7.46
2024-01-10T05:33:23.775Z,-7.41
2024-01-10T05:35:52.100Z,-7.37
2024-01-10T05:38:20.396Z,-7.33
2024-01-10T05:40:48.778Z,-7.32
2024-01-10T05:43:17.115Z,-7.34
2024-01-10T05:45:45.232Z,-7.35
2024-01-10T05:48:13.499Z,-7.51
2024-01-10T05:50:41.880Z,-7.56
2024-01-10T05:53:11.823Z,-7.54
2024-01-10T05:55:40.155Z,-7.46
2024-01-10T05:58:10.904Z,-7.51
2024-01-10T06:00:39.216Z,-7.58
2024-01-10T06:03:09.121Z,-7.53
2024-01-10T06:05:37.390Z,-7.45
2024-01-10T06:08:07.119Z,-7.36
2024-01-10T06:10:37.937Z,-7.32
2024-01-10T06:13:06.749Z,-7.30
2024-01-10T06:15:35.023Z,-7.27
2024-01-10T06:18:03.344Z,-7.27
2024-01-10T06:20:33.345Z,-7.40
2024-01-10T06:23:01.609Z,-7.48
2024-01-10T06:25:29.862Z,-7.51
2024-01-10T06:27:58.146Z,-7.50
2024-01-10T06:30:26.462Z,-7.44
2024-01-10T06:32:54.727Z,-7.35
2024-01-10T06:35:23.042Z,-7.30
2024-01-10T06:37:51.502Z,-7.19
2024-01-10T06:40:20.037Z,-7.12
2024-01-10T06:42:48.928Z,-7.04
2024-01-10T06:45:17.132Z,-6.95
2024-01-10T06:47:45.279Z,-6.88
2024-01-10T06:50:14.072Z,-6.83
2024-01-10T06:52:42.430Z,-6.87
2024-01-10T06:55:11.216Z,-6.85
2024-01-10T06:57:39.487Z,-6.80
2024-01-10T07:00:12.514Z,-6.75
2024-01-10T07:02:41.090Z,-6.62
2024-01-10T07:05:11.043Z,-6.49
2024-01-10T07:07:39.452Z,-6.43
2024-01-10T07:10:08.467Z,-6.30
2024-01-10T07:12:36.662Z,-6.19
2024-01-10T07:15:06.057Z,-6.05
2024-01-10T07:17:34.693Z,-5.99
2024-01-10T07:20:04.735Z,-5.97
2024-01-10T07:22:33.202Z,-5.88
2024-01-10T07:25:01.591Z,-5.77
2024-01-10T07:27:29.963Z,-5.68
2024-01-10T07:29:59.065Z,-5.65
2024-01-10T07:32:27.658Z,-5.54
2024-01-10T07:34:55.869Z,-5.45
2024-01-10T07:37:24.086Z,-5.34
2024-01-10T07:39:52.356Z,-5.30
2024-01-10T07:42:20.623Z,-5.18
2024-01-10T07:44:50.302Z,-5.00
2024-01-10T07:47:19.989Z,-4.82
2024-01-10T07:49:48.312Z,-4.63
2024-01-10T07:52:17.551Z,-4.47
2024-01-10T07:54:45.830Z,-4.38
2024-01-10T07:57:13.993Z,-4.24
2024-01-10T07:59:42.237Z,-4.09
2024-01-10T08:02:11.889Z,-3.92
2024-01-10T08:04:40.318Z,-3.74
2024-01-10T08:07:09.412Z,-3.54
2024-01-10T08:09:37.937Z,-3.40
2024-01-10T08:12:06.618Z,-3.24
2024-01-10T08:14:34.852Z,-3.11
2024-01-10T08:17:03.289Z,-3.03
2024-01-10T08:19:31.670Z,-2.92
2024-01-10T08:21:59.921Z,-2.78
2024-01-10T08:24:28.164Z,-2.71
2024-01-10T08:26:56.437Z,-2.98
2024-01-10T08:29:28.480Z,-3.03
2024-01-10T08:31:56.935Z,-3.31
2024-01-10T08:34:25.951Z,-3.10
2024-01-10T08:36:54.558Z,-3.03
2024-01-10T08:39:23.561Z,-3.08
2024-01-10T08:41:51.924Z,-3.16
2024-01-10T08:44:20.238Z,-3.22
2024-01-10T08:46:49.643Z,-3.25
2024-01-10T08:49:18.940Z,-3.05
2024-01-10T08:51:47.951Z,-3.04
2024-01-10T08:54:18.417Z,-3.03
2024-01-10T08:56:47.182Z,-3.07
2024-01-10T08:59:15.809Z,-2.90
2024-01-10T09:01:44.112Z,-2.80
2024-01-10T09:04:12.384Z,-2.51
2024-01-10T09:06:40.824Z,-2.35
2024-01-10T09:09:09.095Z,-2.29
2024-01-10T09:11:40.142Z,-2.24
2024-01-10T09:14:10.594Z,-2.14
2024-01-10T09:16:40.481Z,-2.00
2024-01-10T09:19:11.845Z,-2.05
2024-01-10T09:21:40.392Z,-2.08
2024-01-10T09:24:21.685Z,-2.05
2024-01-10T09:26:57.542Z,-1.99
2024-01-10T09:29:27.689Z,-1.71
2024-01-10T09:31:56.201Z,-1.73
2024-01-10T09:34:24.788Z,-1.79
2024-01-10T09:36:54.114Z,-1.77
2024-01-10T09:39:22.494Z,-1.67
2024-01-10T09:41:52.766Z,-1.75
2024-01-10T09:44:22.872Z,-1.67
2024-01-10T09:46:53.315Z,-1.58
2024-01-10T09:49:24.958Z,-1.52
2024-01-10T09:51:58.138Z,-1.66
2024-01-10T09:54:26.880Z,-1.48
2024-01-10T09:56:55.009Z,-1.49
2024-01-10T09:59:23.143Z,-1.44
2024-01-10T10:01:53.103Z,-1.17
2024-01-10T10:04:21.708Z,-1.16
2024-01-10T10:06:59.954Z,-1.13
2024-01-10T10:09:28.724Z,-1.12
2024-01-10T10:11:57.106Z,-1.16
2024-01-10T10:14:27.584Z,-0.98
2024-01-10T10:16:55.885Z,-0.83
2024-01-10T10:19:34.212Z,-0.96
2024-01-10T10:22:12.216Z,-0.72
2024-01-10T10:24:40.593Z,-0.75
2024-01-10T10:27:14.476Z,-0.66
2024-01-10T10:29:44.129Z,-0.62
2024-01-10T10:32:13.785Z,-0.47
2024-01-10T10:34:42.059Z,-0.46
2024-01-10T10:37:10.223Z,-0.51
2024-01-10T10:39:39.220Z,-0.36
2024-01-10T10:42:07.781Z,-0.19
2024-01-10T10:44:37.512Z,-0.47
2024-01-10T10:47:12.155Z,-0.36
2024-01-10T10:49:49.481Z,-0.28
2024-01-10T10:52:17.749Z,-0.05
2024-01-10T10:54:45.997Z,0.00
2024-01-10T10:57:15.243Z,0.06
2024-01-10T10:59:43.348Z,-0.03
2024-01-10T11:02:12.391Z,-0.08
2024-01-10T11:04:41.717Z,0.07
2024-01-10T11:07:10.353Z,0.15
2024-01-10T11:09:39.199Z,0.25
2024-01-10T11:12:45.132Z,0.23
2024-01-10T11:15:34.892Z,0.22
2024-01-10T11:18:47.686Z,0.41
2024-01-10T11:21:26.670Z,0.53
2024-01-10T11:24:00.065Z,0.54
2024-01-10T11:26:28.411Z,0.48
2024-01-10T11:28:59.039Z,0.65
2024-01-10T11:31:32.028Z,0.60
2024-01-10T11:34:04.860Z,0.50
2024-01-10T11:36:33.895Z,0.60
2024-01-10T11:39:05.998Z,0.54
2024-01-10T11:41:39.857Z,0.64
2024-01-10T11:44:26.658Z,0.70
2024-01-10T11:46:56.243Z,0.56
2024-01-10T11:49:25.687Z,0.37
2024-01-10T11:51:59.457Z,0.49
2024-01-10T11:54:44.909Z,0.72
2024-01-10T11:57:33.645Z,0.79
2024-01-10T12:00:02.756Z,0.83
2024-01-10T12:02:34.246Z,0.91
2024-01-10T12:05:03.251Z,1.03
2024-01-10T12:07:32.001Z,1.07
2024-01-10T12:10:00.300Z,1.05
2024-01-10T12:12:28.421Z,0.99
2024-01-10T12:14:56.903Z,1.08
2024-01-10T12:17:30.410Z,0.99
2024-01-10T12:19:58.645Z,1.02
2024-01-10T12:22:26.749Z,0.99
2024-01-10T12:24:54.975Z,1.17
2024-01-10T12:27:24.166Z,1.18
2024-01-10T12:29:53.864Z,1.09
2024-01-10T12:32:25.691Z,1.25
2024-01-10T12:35:06.285Z,1.25
2024-01-10T12:37:36.151Z,1.35
2024-01-10T12:40:11.112Z,1.26
2024-01-10T12:42:39.816Z,1.04
2024-01-10T12:45:22.706Z,0.72
2024-01-10T12:47:51.009Z,0.95
2024-01-10T12:50:19.374Z,1.20
2024-01-10T12:52:48.170Z,1.39
2024-01-10T12:55:16.298Z,1.50
2024-01-10T12:57:45.180Z,1.68
2024-01-10T13:00:15.841Z,1.75
2024-01-10T13:02:47.984Z,1.86
2024-01-10T13:05:27.248Z,2.08
2024-01-10T13:07:55.484Z,2.10
2024-01-10T13:10:23.664Z,2.12
2024-01-10T13:12:51.777Z,2.08
2024-01-10T13:15:19.986Z,2.11
2024-01-10T13:17:48.254Z,2.17
2024-01-10T13:20:16.652Z,2.18
2024-01-10T13:22:44.980Z,2.14
2024-01-10T13:25:14.165Z,2.22
2024-01-10T13:27:42.237Z,2.21
2024-01-10T13:30:13.847Z,2.23
2024-01-10T13:32:42.132Z,2.20
2024-01-10T13:35:10.444Z,2.24
2024-01-10T13:37:38.606Z,2.32
2024-01-10T13:40:13.867Z,2.36
2024-01-10T13:42:45.761Z,2.36
2024-01-10T13:45:14.133Z,2.37
2024-01-10T13:47:42.601Z,2.38
2024-01-10T13:50:11.151Z,2.41
2024-01-10T13:52:39.903Z,2.42
2024-01-10T13:55:09.299Z,2.36
2024-01-10T13:57:37.485Z,2.32
2024-01-10T14:00:08.314Z,2.23
2024-01-10T14:02:45.534Z,2.04
2024-01-10T14:05:14.330Z,1.93
2024-01-10T14:07:51.429Z,1.82
2024-01-10T14:10:20.305Z,1.77
2024-01-10T14:12:49.400Z,1.81
2024-01-10T14:15:18.089Z,1.82
2024-01-10T14:17:47.153Z,1.78
2024-01-10T14:20:15.652Z,1.77
2024-01-10T14:22:44.242Z,1.72
2024-01-10T14:25:12.678Z,1.59
2024-01-10T14:27:41.001Z,1.47
2024-01-10T14:30:10.123Z,1.44
2024-01-10T14:32:39.271Z,1.31
2024-01-10T14:35:09.028Z,1.34
2024-01-10T14:37:38.089Z,1.28
2024-01-10T14:40:08.006Z,1.27
2024-01-10T14:42:36.348Z,1.13
2024-01-10T14:45:05.383Z,1.11
2024-01-10T14:47:33.816Z,0.94
2024-01-10T14:50:02.572Z,0.98
2024-01-10T14:52:31.060Z,0.86
2024-01-10T14:54:59.300Z,0.79
2024-01-10T14:57:27.571Z,0.77
2024-01-10T14:59:55.724Z,0.86
2024-01-10T15:02:24.214Z,0.84
2024-01-10T15:04:52.624Z,0.85
2024-01-10T15:07:20.798Z,0.91
2024-01-10T15:09:49.160Z,0.93
2024-01-10T15:12:18.051Z,0.92
2024-01-10T15:14:46.320Z,0.88
2024-01-10T15:17:14.818Z,0.85
2024-01-10T15:19:43.399Z,0.80
2024-01-10T15:22:11.594Z,0.75
2024-01-10T15:24:40.365Z,0.72
2024-01-10T15:27:11.123Z,0.70
2024-01-10T15:29:40.336Z,0.65
2024-01-10T15:32:09.093Z,0.58
2024-01-10T15:34:37.513Z,0.29
2024-01-10T15:37:05.909Z,0.17
2024-01-10T15:39:34.121Z,0.11
2024-01-10T15:42:05.060Z,0.04
2024-01-10T15:44:33.327Z,-0.03
2024-01-10T15:47:01.544Z,-0.07
2024-01-10T15:49:30.727Z,-0.06
2024-01-10T15:51:59.046Z,-0.06
2024-01-10T15:54:27.556Z,-0.04
2024-01-10T15:56:56.338Z,-0.04
2024-01-10T15:59:24.727Z,-0.06
2024-01-10T16:01:54.450Z,-0.19
2024-01-10T16:04:22.720Z,-0.46
2024-01-10T16:06:51.055Z,-0.48
2024-01-10T16:09:19.277Z,-0.52
2024-01-10T16:11:47.443Z,-0.55
2024-01-10T16:14:15.738Z,-0.54
2024-01-10T16:16:43.946Z,-0.50
2024-01-10T16:19:13.375Z,-0.59
2024-01-10T16:21:41.740Z,-0.81
2024-01-10T16:24:11.061Z,-0.88
2024-01-10T16:26:39.300Z,-0.90
2024-01-10T16:29:08.151Z,-1.01
2024-01-10T16:31:36.822Z,-1.18
2024-01-10T16:34:05.156Z,-1.24
2024-01-10T16:36:33.325Z,-1.26
2024-01-10T16:39:01.616Z,-1.29
2024-01-10T16:41:29.950Z,-1.29
2024-01-10T16:43:58.301Z,-1.25
2024-01-10T16:46:28.264Z,-1.22
2024-01-10T16:48:56.494Z,-1.15
2024-01-10T16:51:25.125Z,-1.20
2024-01-10T16:53:53.598Z,-1.29
2024-01-10T16:56:22.693Z,-1.36
2024-01-10T16:58:51.612Z,-1.42
2024-01-10T17:01:20.118Z,-1.34
2024-01-10T17:03:48.450Z,-1.56
2024-01-10T17:06:17.144Z,-1.83
2024-01-10T17:08:45.607Z,-1.92
2024-01-10T17:11:16.260Z,-1.89
2024-01-10T17:13:46.227Z,-1.81
2024-01-10T17:16:14.640Z,-1.71
2024-01-10T17:18:42.859Z,-1.65
2024-01-10T17:21:12.919Z,-1.92
2024-01-10T17:23:41.184Z,-2.03
2024-01-10T17:26:10.127Z,-2.02
2024-01-10T17:28:38.772Z,-2.01
2024-01-10T17:31:07.662Z,-2.01
2024-01-10T17:33:36.092Z,-1.94
2024-01-10T17:36:05.215Z,-1.94
2024-01-10T17:38:34.248Z,-2.42
2024-01-10T17:41:03.856Z,-2.52
2024-01-10T17:43:32.248Z,-2.52
2024-01-10T17:46:00.485Z,-2.57
2024-01-10T17:48:29.051Z,-2.57
2024-01-10T17:50:57.550Z,-2.52
2024-01-10T17:53:26.293Z,-2.59
2024-01-10T17:55:54.527Z,-2.64
2024-01-10T17:58:22.782Z,-2.64
2024-01-10T18:00:50.985Z,-2.50
2024-01-10T18:03:19.249Z,-2.39
2024-01-10T18:05:47.763Z,-2.26
2024-01-10T18:08:16.121Z,-2.13
2024-01-10T18:10:46.784Z,-2.04
2024-01-10T18:13:16.517Z,-2.00
2024-01-10T18:15:44.793Z,-1.97
2024-01-10T18:18:13.088Z,-2.04
2024-01-10T18:20:41.704Z,-2.07
2024-01-10T18:23:10.070Z,-2.01
2024-01-10T18:25:40.521Z,-1.97
2024-01-10T18:28:09.170Z,-1.98
2024-01-10T18:30:37.552Z,-2.09
2024-01-10T18:33:06.830Z,-2.18
2024-01-10T18:35:35.194Z,-2.22
2024-01-10T18:38:05.659Z,-2.23
2024-01-10T18:40:33.999Z,-2.23
2024-01-10T18:43:02.485Z,-2.20
2024-01-10T18:45:30.672Z,-2.21
2024-01-10T18:47:59.429Z,-2.11
2024-01-10T18:50:31.341Z,-2.17
2024-01-10T18:53:02.839Z,-2.29
2024-01-10T18:55:31.952Z,-2.32
2024-01-10T18:58:00.117Z,-2.32
2024-01-10T19:00:29.114Z,-2.32
2024-01-10T19:02:59.341Z,-2.38
2024-01-10T19:05:28.130Z,-2.45
2024-01-10T19:07:56.654Z,-2.56
2024-01-10T19:10:25.081Z,-2.57
2024-01-10T19:12:53.172Z,-2.53
2024-01-10T19:15:23.716Z,-2.59
2024-01-10T19:17:52.051Z,-2.58
2024-01-10T19:20:20.402Z,-2.62
2024-01-10T19:22:48.814Z,-2.64
2024-01-10T19:25:17.088Z,-2.81
2024-01-10T19:27:45.372Z,-2.85
2024-01-10T19:30:22.091Z,-2.81
2024-01-10T19:32:52.071Z,-2.73
2024-01-10T19:35:20.446Z,-2.81
2024-01-10T19:37:48.711Z,-2.85
2024-01-10T19:40:17.487Z,-2.89
2024-01-10T19:42:45.670Z,-2.84
2024-01-10T19:45:13.968Z,-2.92
2024-01-10T19:47:42.443Z,-2.98
2024-01-10T19:50:12.103Z,-2.99
2024-01-10T19:52:40.576Z,-3.00
2024-01-10T19:55:09.753Z,-2.90
2024-01-10T19:57:38.806Z,-2.79
2024-01-10T20:00:11.581Z,-2.76
2024-01-10T20:02:40.990Z,-2.71
2024-01-10T20:05:10.539Z,-2.72
2024-01-10T20:07:38.960Z,-2.66
2024-01-10T20:10:09.392Z,-2.59
2024-01-10T20:12:37.658Z,-2.56
2024-01-10T20:15:06.632Z,-2.55
2024-01-10T20:17:35.558Z,-2.54
2024-01-10T20:20:04.418Z,-2.54
2024-01-10T20:22:32.808Z,-2.48
2024-01-10T20:25:00.985Z,-2.39
2024-01-10T20:27:29.258Z,-2.40
2024-01-10T20:29:57.538Z,-2.38
2024-01-10T20:32:25.915Z,-2.42
2024-01-10T20:34:56.165Z,-2.43
2024-01-10T20:37:25.020Z,-2.51
2024-01-10T20:39:53.407Z,-2.48
2024-01-10T20:42:21.692Z,-2.45
2024-01-10T20:44:50.456Z,-2.44
2024-01-10T20:47:28.445Z,-2.50
2024-01-10T20:50:00.492Z,-2.50
2024-01-10T20:52:28.840Z,-2.56
2024-01-10T20:54:58.301Z,-2.60
2024-01-10T20:57:27.102Z,-2.59
2024-01-10T20:59:55.621Z,-2.53
2024-01-10T21:02:24.661Z,-2.52
2024-01-10T21:04:53.006Z,-2.59
2024-01-10T21:07:21.331Z,-2.56
2024-01-10T21:09:49.595Z,-2.46
2024-01-10T21:12:17.701Z,-2.46
2024-01-10T21:14:49.004Z,-2.49
2024-01-10T21:17:17.220Z,-2.49
2024-01-10T21:19:45.756Z,-2.52
2024-01-10T21:22:15.165Z,-2.46
2024-01-10T21:24:43.536Z,-2.51
2024-01-10T21:27:11.818Z,-2.49
2024-01-10T21:29:40.134Z,-2.46
2024-01-10T21:32:08.844Z,-2.39
2024-01-10T21:34:37.387Z,-2.44
2024-01-10T21:37:05.834Z,-2.51
2024-01-10T21:39:34.280Z,-2.52
2024-01-10T21:42:02.433Z,-2.53
2024-01-10T21:44:30.773Z,-2.54
2024-01-10T21:47:02.644Z,-2.55
2024-01-10T21:49:31.487Z,-2.58
2024-01-10T21:51:59.961Z,-2.63
2024-01-10T21:54:28.211Z,-2.69
2024-01-10T21:56:56.274Z,-2.69
2024-01-10T21:59:24.485Z,-2.59
2024-01-10T22:01:53.009Z,-2.48
2024-01-10T22:04:21.448Z,-2.49
2024-01-10T22:06:50.093Z,-2.42
2024-01-10T22:09:18.438Z,-2.44
2024-01-10T22:11:46.657Z,-2.40
2024-01-10T22:14:14.908Z,-2.35
2024-01-10T22:16:43.065Z,-2.32
2024-01-10T22:19:11.300Z,-2.24
2024-01-10T22:21:39.617Z,-2.39
2024-01-10T22:24:10.657Z,-2.31
2024-01-10T22:26:42.233Z,-2.32
2024-01-10T22:29:10.704Z,-2.33
2024-01-10T22:31:38.948Z,-2.27
2024-01-10T22:34:07.308Z,-2.25
2024-01-10T22:36:35.804Z,-2.20
2024-01-10T22:39:04.830Z,-2.12
2024-01-10T22:41:33.120Z,-2.05
2024-01-10T22:44:01.406Z,-2.03
2024-01-10T22:46:29.635Z,-1.98
2024-01-10T22:48:58.491Z,-1.93
2024-01-10T22:51:26.788Z,-1.85
2024-01-10T22:53:55.141Z,-1.73
2024-01-10T22:56:23.455Z,-1.66
2024-01-10T22:58:52.158Z,-1.59
2024-01-10T23:01:21.816Z,-1.56
2024-01-10T23:03:51.064Z,-1.51
2024-01-10T23:06:19.439Z,-1.57
2024-01-10T23:08:47.826Z,-1.64
2024-01-10T23:11:16.242Z,-1.70
2024-01-10T23:13:44.437Z,-1.70
2024-01-10T23:16:12.565Z,-1.71
2024-01-10T23:18:40.797Z,-1.75
2024-01-10T23:21:11.925Z,-1.83
2024-01-10T23:23:43.380Z,-1.90
2024-01-10T23:26:11.960Z,-1.95
2024-01-10T23:28:40.129Z,-2.00
2024-01-10T23:31:15.931Z,-1.94
2024-01-10T23:33:44.878Z,-1.99
2024-01-10T23:36:13.203Z,-2.07
2024-01-10T23:38:42.274Z,-2.06
2024-01-10T23:41:10.404Z,-2.02
2024-01-10T23:43:38.705Z,-1.99
2024-01-10T23:46:06.970Z,-1.99
2024-01-10T23:48:35.158Z,-2.05
2024-01-10T23:51:03.520Z,-2.06
2024-01-10T23:53:31.860Z,-2.02
2024-01-10T23:56:00.224Z,-2.00
2024-01-10T23:58:28.541Z,-1.93
